sensor_id;sensor_type;location;lat;lon;timestamp;P1;durP1;ratioP1;P2;durP2;ratioP2
11837;SDS011;5978;51.020;6.764;2023-04-25T00:01:24;12.50;;;5.23;;
11837;SDS011;5978;51.020;6.764;2023-04-25T00:03:50;12.27;;;6.10;;
11837;SDS011;5978;51.020;6.764;2023-04-25T00:06:16;12.33;;;6.57;;
11837;SDS011;5978;51.020;6.764;2023-04-25T00:08:43;12.73;;;6.30;;
11837;SDS011;5978;51.020;6.764;2023-04-25T00:11:08;16.55;;;5.97;;
11837;SDS011;5978;51.020;6.764;2023-04-25T00:13:34;15.87;;;5.50;;
11837;SDS011;5978;51.020;6.764;2023-04-25T00:16:00;15.53;;;6.60;;
11837;SDS011;5978;51.020;6.764;2023-04-25T00:18:27;12.57;;;5.30;;
11837;SDS011;5978;51.020;6.764;2023-04-25T00:20:54;11.65;;;4.53;;
11837;SDS011;5978;51.020;6.764;2023-04-25T00:23:21;20.10;;;5.70;;
11837;SDS011;5978;51.020;6.764;2023-04-25T00:25:48;13.73;;;5.78;;
11837;SDS011;5978;51.020;6.764;2023-04-25T00:28:15;10.52;;;5.78;;
11837;SDS011;5978;51.020;6.764;2023-04-25T00:30:41;13.50;;;5.80;;
11837;SDS011;5978;51.020;6.764;2023-04-25T00:33:07;12.00;;;5.13;;
11837;SDS011;5978;51.020;6.764;2023-04-25T00:35:34;9.30;;;5.45;;
11837;SDS011;5978;51.020;6.764;2023-04-25T00:38:00;7.75;;;5.82;;
11837;SDS011;5978;51.020;6.764;2023-04-25T00:40:26;16.70;;;6.23;;
11837;SDS011;5978;51.020;6.764;2023-04-25T00:42:52;9.40;;;5.60;;
11837;SDS011;5978;51.020;6.764;2023-04-25T00:45:18;10.70;;;5.35;;
11837;SDS011;5978;51.020;6.764;2023-04-25T00:47:45;12.25;;;5.88;;
11837;SDS011;5978;51.020;6.764;2023-04-25T00:50:12;10.88;;;5.93;;
11837;SDS011;5978;51.020;6.764;2023-04-25T00:52:40;11.93;;;5.75;;
11837;SDS011;5978;51.020;6.764;2023-04-25T00:55:08;16.42;;;5.95;;
11837;SDS011;5978;51.020;6.764;2023-04-25T00:57:36;12.90;;;5.75;;
11837;SDS011;5978;51.020;6.764;2023-04-25T01:00:02;11.30;;;5.47;;
11837;SDS011;5978;51.020;6.764;2023-04-25T01:02:30;12.50;;;5.90;;
11837;SDS011;5978;51.020;6.764;2023-04-25T01:04:58;12.52;;;6.30;;
11837;SDS011;5978;51.020;6.764;2023-04-25T01:07:23;12.40;;;6.40;;
11837;SDS011;5978;51.020;6.764;2023-04-25T01:09:51;10.20;;;5.13;;
11837;SDS011;5978;51.020;6.764;2023-04-25T01:12:17;11.02;;;5.38;;
11837;SDS011;5978;51.020;6.764;2023-04-25T01:14:43;11.73;;;5.30;;
11837;SDS011;5978;51.020;6.764;2023-04-25T01:17:09;13.73;;;5.90;;
11837;SDS011;5978;51.020;6.764;2023-04-25T01:19:36;13.25;;;5.80;;
11837;SDS011;5978;51.020;6.764;2023-04-25T01:22:02;13.27;;;6.30;;
11837;SDS011;5978;51.020;6.764;2023-04-25T01:24:29;12.95;;;5.60;;
11837;SDS011;5978;51.020;6.764;2023-04-25T01:26:56;12.63;;;6.45;;
11837;SDS011;5978;51.020;6.764;2023-04-25T01:29:23;21.15;;;7.22;;
11837;SDS011;5978;51.020;6.764;2023-04-25T01:31:51;11.60;;;6.50;;
11837;SDS011;5978;51.020;6.764;2023-04-25T01:34:17;24.23;;;7.32;;
11837;SDS011;5978;51.020;6.764;2023-04-25T01:36:44;13.93;;;6.20;;
11837;SDS011;5978;51.020;6.764;2023-04-25T01:39:10;8.27;;;5.18;;
11837;SDS011;5978;51.020;6.764;2023-04-25T01:41:36;14.43;;;5.73;;
11837;SDS011;5978;51.020;6.764;2023-04-25T01:44:02;14.70;;;7.20;;
11837;SDS011;5978;51.020;6.764;2023-04-25T01:46:28;13.20;;;6.15;;
11837;SDS011;5978;51.020;6.764;2023-04-25T01:48:54;11.80;;;5.95;;
11837;SDS011;5978;51.020;6.764;2023-04-25T01:51:20;13.10;;;6.10;;
11837;SDS011;5978;51.020;6.764;2023-04-25T01:53:46;15.80;;;6.90;;
11837;SDS011;5978;51.020;6.764;2023-04-25T01:56:12;10.77;;;5.27;;
11837;SDS011;5978;51.020;6.764;2023-04-25T01:58:37;11.47;;;5.47;;
11837;SDS011;5978;51.020;6.764;2023-04-25T02:01:03;18.53;;;6.07;;
11837;SDS011;5978;51.020;6.764;2023-04-25T02:03:30;17.15;;;5.93;;
11837;SDS011;5978;51.020;6.764;2023-04-25T02:05:57;16.52;;;6.35;;
11837;SDS011;5978;51.020;6.764;2023-04-25T02:08:22;15.20;;;5.90;;
11837;SDS011;5978;51.020;6.764;2023-04-25T02:10:48;10.50;;;4.30;;
11837;SDS011;5978;51.020;6.764;2023-04-25T02:13:14;9.50;;;5.80;;
11837;SDS011;5978;51.020;6.764;2023-04-25T02:15:40;14.97;;;6.23;;
11837;SDS011;5978;51.020;6.764;2023-04-25T02:18:06;13.53;;;5.67;;
11837;SDS011;5978;51.020;6.764;2023-04-25T02:20:32;14.83;;;5.30;;
11837;SDS011;5978;51.020;6.764;2023-04-25T02:22:58;12.88;;;5.68;;
11837;SDS011;5978;51.020;6.764;2023-04-25T02:25:24;12.18;;;6.07;;
11837;SDS011;5978;51.020;6.764;2023-04-25T02:27:50;12.45;;;6.25;;
11837;SDS011;5978;51.020;6.764;2023-04-25T02:30:16;18.23;;;6.22;;
11837;SDS011;5978;51.020;6.764;2023-04-25T02:32:42;15.63;;;6.00;;
11837;SDS011;5978;51.020;6.764;2023-04-25T02:35:08;13.63;;;5.73;;
11837;SDS011;5978;51.020;6.764;2023-04-25T02:37:35;21.63;;;6.55;;
11837;SDS011;5978;51.020;6.764;2023-04-25T02:40:01;11.38;;;5.47;;
11837;SDS011;5978;51.020;6.764;2023-04-25T02:42:29;13.05;;;5.65;;
11837;SDS011;5978;51.020;6.764;2023-04-25T02:44:55;14.93;;;5.75;;
11837;SDS011;5978;51.020;6.764;2023-04-25T02:47:21;6.53;;;4.63;;
11837;SDS011;5978;51.020;6.764;2023-04-25T02:49:46;16.17;;;6.30;;
11837;SDS011;5978;51.020;6.764;2023-04-25T02:52:12;9.30;;;5.63;;
11837;SDS011;5978;51.020;6.764;2023-04-25T02:54:39;19.90;;;6.15;;
11837;SDS011;5978;51.020;6.764;2023-04-25T02:57:05;14.50;;;6.82;;
11837;SDS011;5978;51.020;6.764;2023-04-25T02:59:31;13.07;;;6.30;;
11837;SDS011;5978;51.020;6.764;2023-04-25T03:01:57;10.00;;;6.43;;
11837;SDS011;5978;51.020;6.764;2023-04-25T03:04:23;18.03;;;6.60;;
11837;SDS011;5978;51.020;6.764;2023-04-25T03:06:49;8.10;;;5.93;;
11837;SDS011;5978;51.020;6.764;2023-04-25T03:09:15;10.70;;;6.45;;
11837;SDS011;5978;51.020;6.764;2023-04-25T03:11:41;10.17;;;6.10;;
11837;SDS011;5978;51.020;6.764;2023-04-25T03:14:07;12.07;;;5.53;;
11837;SDS011;5978;51.020;6.764;2023-04-25T03:16:32;8.47;;;5.20;;
11837;SDS011;5978;51.020;6.764;2023-04-25T03:18:59;10.02;;;6.05;;
11837;SDS011;5978;51.020;6.764;2023-04-25T03:21:24;10.60;;;5.67;;
11837;SDS011;5978;51.020;6.764;2023-04-25T03:23:51;13.60;;;5.18;;
11837;SDS011;5978;51.020;6.764;2023-04-25T03:26:17;15.93;;;4.68;;
11837;SDS011;5978;51.020;6.764;2023-04-25T03:28:43;12.97;;;6.30;;
11837;SDS011;5978;51.020;6.764;2023-04-25T03:31:09;9.43;;;5.17;;
11837;SDS011;5978;51.020;6.764;2023-04-25T03:33:34;9.80;;;5.10;;
11837;SDS011;5978;51.020;6.764;2023-04-25T03:36:00;9.63;;;4.53;;
11837;SDS011;5978;51.020;6.764;2023-04-25T03:38:26;11.47;;;6.27;;
11837;SDS011;5978;51.020;6.764;2023-04-25T03:40:52;15.30;;;5.47;;
11837;SDS011;5978;51.020;6.764;2023-04-25T03:43:18;17.17;;;8.35;;
11837;SDS011;5978;51.020;6.764;2023-04-25T03:45:43;17.87;;;5.60;;
11837;SDS011;5978;51.020;6.764;2023-04-25T03:48:09;12.53;;;6.40;;
11837;SDS011;5978;51.020;6.764;2023-04-25T03:50:35;14.70;;;7.53;;
11837;SDS011;5978;51.020;6.764;2023-04-25T03:53:01;12.77;;;6.30;;
11837;SDS011;5978;51.020;6.764;2023-04-25T03:55:26;8.60;;;5.37;;
11837;SDS011;5978;51.020;6.764;2023-04-25T03:57:52;12.97;;;5.77;;
11837;SDS011;5978;51.020;6.764;2023-04-25T04:00:18;10.00;;;5.73;;
11837;SDS011;5978;51.020;6.764;2023-04-25T04:02:44;12.97;;;6.00;;
11837;SDS011;5978;51.020;6.764;2023-04-25T04:05:09;11.77;;;6.20;;
11837;SDS011;5978;51.020;6.764;2023-04-25T04:07:35;16.70;;;5.43;;
11837;SDS011;5978;51.020;6.764;2023-04-25T04:10:08;16.10;;;7.05;;
11837;SDS011;5978;51.020;6.764;2023-04-25T04:12:35;11.73;;;6.05;;
11837;SDS011;5978;51.020;6.764;2023-04-25T04:15:04;16.67;;;7.63;;
11837;SDS011;5978;51.020;6.764;2023-04-25T04:17:31;12.20;;;6.38;;
11837;SDS011;5978;51.020;6.764;2023-04-25T04:19:57;17.88;;;7.53;;
11837;SDS011;5978;51.020;6.764;2023-04-25T04:22:23;15.83;;;7.47;;
11837;SDS011;5978;51.020;6.764;2023-04-25T04:24:49;16.08;;;5.65;;
11837;SDS011;5978;51.020;6.764;2023-04-25T04:27:16;11.00;;;5.60;;
11837;SDS011;5978;51.020;6.764;2023-04-25T04:29:46;20.00;;;6.75;;
11837;SDS011;5978;51.020;6.764;2023-04-25T04:32:13;22.43;;;6.17;;
11837;SDS011;5978;51.020;6.764;2023-04-25T04:34:40;13.23;;;6.32;;
11837;SDS011;5978;51.020;6.764;2023-04-25T04:37:06;13.73;;;5.63;;
11837;SDS011;5978;51.020;6.764;2023-04-25T04:39:32;11.63;;;6.68;;
11837;SDS011;5978;51.020;6.764;2023-04-25T04:41:59;14.50;;;6.68;;
11837;SDS011;5978;51.020;6.764;2023-04-25T04:44:26;16.85;;;5.90;;
11837;SDS011;5978;51.020;6.764;2023-04-25T04:46:53;11.13;;;5.88;;
11837;SDS011;5978;51.020;6.764;2023-04-25T04:49:20;15.07;;;7.15;;
11837;SDS011;5978;51.020;6.764;2023-04-25T04:51:46;13.95;;;6.97;;
11837;SDS011;5978;51.020;6.764;2023-04-25T04:54:13;15.35;;;6.63;;
11837;SDS011;5978;51.020;6.764;2023-04-25T04:56:38;12.80;;;7.20;;
11837;SDS011;5978;51.020;6.764;2023-04-25T04:59:04;14.50;;;6.70;;
11837;SDS011;5978;51.020;6.764;2023-04-25T05:01:30;18.80;;;7.27;;
11837;SDS011;5978;51.020;6.764;2023-04-25T05:03:56;23.10;;;7.90;;
11837;SDS011;5978;51.020;6.764;2023-04-25T05:06:26;18.50;;;7.32;;
11837;SDS011;5978;51.020;6.764;2023-04-25T05:08:54;15.68;;;7.53;;
11837;SDS011;5978;51.020;6.764;2023-04-25T05:11:21;9.32;;;7.20;;
11837;SDS011;5978;51.020;6.764;2023-04-25T05:13:49;12.95;;;7.53;;
11837;SDS011;5978;51.020;6.764;2023-04-25T05:16:19;19.30;;;8.00;;
11837;SDS011;5978;51.020;6.764;2023-04-25T05:18:45;15.10;;;8.30;;
11837;SDS011;5978;51.020;6.764;2023-04-25T05:21:11;33.47;;;7.57;;
11837;SDS011;5978;51.020;6.764;2023-04-25T05:23:37;17.02;;;8.45;;
11837;SDS011;5978;51.020;6.764;2023-04-25T05:26:03;13.93;;;8.10;;
11837;SDS011;5978;51.020;6.764;2023-04-25T05:28:29;16.03;;;7.60;;
11837;SDS011;5978;51.020;6.764;2023-04-25T05:30:55;21.80;;;7.20;;
11837;SDS011;5978;51.020;6.764;2023-04-25T05:33:21;12.20;;;5.90;;
11837;SDS011;5978;51.020;6.764;2023-04-25T05:35:47;19.87;;;7.97;;
11837;SDS011;5978;51.020;6.764;2023-04-25T05:38:13;16.85;;;6.93;;
11837;SDS011;5978;51.020;6.764;2023-04-25T05:40:39;22.23;;;7.23;;
11837;SDS011;5978;51.020;6.764;2023-04-25T05:43:05;16.90;;;7.10;;
11837;SDS011;5978;51.020;6.764;2023-04-25T05:45:30;19.63;;;7.97;;
11837;SDS011;5978;51.020;6.764;2023-04-25T05:47:56;11.70;;;6.57;;
11837;SDS011;5978;51.020;6.764;2023-04-25T05:50:22;16.77;;;5.60;;
11837;SDS011;5978;51.020;6.764;2023-04-25T05:52:47;10.87;;;6.10;;
11837;SDS011;5978;51.020;6.764;2023-04-25T05:55:13;12.00;;;5.70;;
11837;SDS011;5978;51.020;6.764;2023-04-25T05:57:40;18.17;;;6.80;;
11837;SDS011;5978;51.020;6.764;2023-04-25T06:00:07;15.20;;;6.53;;
11837;SDS011;5978;51.020;6.764;2023-04-25T06:02:36;12.93;;;6.18;;
11837;SDS011;5978;51.020;6.764;2023-04-25T06:05:02;21.17;;;5.53;;
11837;SDS011;5978;51.020;6.764;2023-04-25T06:07:28;21.23;;;5.93;;
11837;SDS011;5978;51.020;6.764;2023-04-25T06:09:57;11.00;;;4.78;;
11837;SDS011;5978;51.020;6.764;2023-04-25T06:12:23;10.70;;;4.90;;
11837;SDS011;5978;51.020;6.764;2023-04-25T06:14:49;13.53;;;6.00;;
11837;SDS011;5978;51.020;6.764;2023-04-25T06:17:15;13.37;;;5.30;;
11837;SDS011;5978;51.020;6.764;2023-04-25T06:19:41;27.17;;;6.30;;
11837;SDS011;5978;51.020;6.764;2023-04-25T06:22:07;18.30;;;5.00;;
11837;SDS011;5978;51.020;6.764;2023-04-25T06:24:33;11.63;;;5.57;;
11837;SDS011;5978;51.020;6.764;2023-04-25T06:26:59;10.80;;;5.68;;
11837;SDS011;5978;51.020;6.764;2023-04-25T06:29:25;19.77;;;6.70;;
11837;SDS011;5978;51.020;6.764;2023-04-25T06:31:51;12.37;;;5.30;;
11837;SDS011;5978;51.020;6.764;2023-04-25T06:34:17;13.93;;;5.67;;
11837;SDS011;5978;51.020;6.764;2023-04-25T06:36:43;15.23;;;5.37;;
11837;SDS011;5978;51.020;6.764;2023-04-25T06:39:10;16.10;;;5.18;;
11837;SDS011;5978;51.020;6.764;2023-04-25T06:41:36;11.93;;;5.25;;
11837;SDS011;5978;51.020;6.764;2023-04-25T06:44:02;19.30;;;5.40;;
11837;SDS011;5978;51.020;6.764;2023-04-25T06:46:28;16.13;;;5.37;;
11837;SDS011;5978;51.020;6.764;2023-04-25T06:48:53;8.33;;;4.17;;
11837;SDS011;5978;51.020;6.764;2023-04-25T06:51:19;6.10;;;4.05;;
11837;SDS011;5978;51.020;6.764;2023-04-25T06:53:45;12.47;;;5.90;;
11837;SDS011;5978;51.020;6.764;2023-04-25T06:56:11;8.67;;;4.30;;
11837;SDS011;5978;51.020;6.764;2023-04-25T06:58:37;14.50;;;6.20;;
11837;SDS011;5978;51.020;6.764;2023-04-25T07:01:03;13.20;;;5.67;;
11837;SDS011;5978;51.020;6.764;2023-04-25T07:03:29;14.37;;;4.83;;
11837;SDS011;5978;51.020;6.764;2023-04-25T07:05:55;15.27;;;5.68;;
11837;SDS011;5978;51.020;6.764;2023-04-25T07:08:20;15.17;;;4.70;;
11837;SDS011;5978;51.020;6.764;2023-04-25T07:10:46;12.97;;;4.90;;
11837;SDS011;5978;51.020;6.764;2023-04-25T07:13:12;20.80;;;5.90;;
11837;SDS011;5978;51.020;6.764;2023-04-25T07:15:38;15.83;;;4.90;;
11837;SDS011;5978;51.020;6.764;2023-04-25T07:18:04;8.17;;;4.53;;
11837;SDS011;5978;51.020;6.764;2023-04-25T07:20:30;9.27;;;4.85;;
11837;SDS011;5978;51.020;6.764;2023-04-25T07:22:56;9.10;;;4.07;;
11837;SDS011;5978;51.020;6.764;2023-04-25T07:25:22;22.23;;;5.30;;
11837;SDS011;5978;51.020;6.764;2023-04-25T07:27:48;14.80;;;5.47;;
11837;SDS011;5978;51.020;6.764;2023-04-25T07:30:13;12.53;;;3.97;;
11837;SDS011;5978;51.020;6.764;2023-04-25T07:32:39;15.53;;;5.33;;
11837;SDS011;5978;51.020;6.764;2023-04-25T07:35:05;8.00;;;4.60;;
11837;SDS011;5978;51.020;6.764;2023-04-25T07:37:32;14.93;;;5.10;;
11837;SDS011;5978;51.020;6.764;2023-04-25T07:39:59;16.50;;;4.95;;
11837;SDS011;5978;51.020;6.764;2023-04-25T07:42:25;6.97;;;3.77;;
11837;SDS011;5978;51.020;6.764;2023-04-25T07:44:51;14.53;;;4.50;;
11837;SDS011;5978;51.020;6.764;2023-04-25T07:47:17;9.20;;;4.23;;
11837;SDS011;5978;51.020;6.764;2023-04-25T07:49:44;7.38;;;3.58;;
11837;SDS011;5978;51.020;6.764;2023-04-25T07:52:10;5.17;;;3.40;;
11837;SDS011;5978;51.020;6.764;2023-04-25T07:54:36;9.27;;;3.40;;
11837;SDS011;5978;51.020;6.764;2023-04-25T07:57:02;11.53;;;3.33;;
11837;SDS011;5978;51.020;6.764;2023-04-25T07:59:28;13.87;;;3.80;;
11837;SDS011;5978;51.020;6.764;2023-04-25T08:01:54;7.73;;;4.13;;
11837;SDS011;5978;51.020;6.764;2023-04-25T08:04:22;10.07;;;4.20;;
11837;SDS011;5978;51.020;6.764;2023-04-25T08:06:48;17.57;;;4.57;;
11837;SDS011;5978;51.020;6.764;2023-04-25T08:09:15;9.93;;;3.93;;
11837;SDS011;5978;51.020;6.764;2023-04-25T08:11:41;6.30;;;4.00;;
11837;SDS011;5978;51.020;6.764;2023-04-25T08:14:08;6.10;;;3.43;;
11837;SDS011;5978;51.020;6.764;2023-04-25T08:16:33;23.27;;;4.13;;
11837;SDS011;5978;51.020;6.764;2023-04-25T08:19:00;11.57;;;3.50;;
11837;SDS011;5978;51.020;6.764;2023-04-25T08:21:26;14.77;;;4.47;;
11837;SDS011;5978;51.020;6.764;2023-04-25T08:23:54;6.07;;;3.10;;
11837;SDS011;5978;51.020;6.764;2023-04-25T08:26:22;9.20;;;3.10;;
11837;SDS011;5978;51.020;6.764;2023-04-25T08:28:48;9.23;;;3.60;;
11837;SDS011;5978;51.020;6.764;2023-04-25T08:31:14;12.70;;;3.17;;
11837;SDS011;5978;51.020;6.764;2023-04-25T08:33:40;7.07;;;3.00;;
11837;SDS011;5978;51.020;6.764;2023-04-25T08:36:06;14.13;;;3.37;;
11837;SDS011;5978;51.020;6.764;2023-04-25T08:38:32;10.43;;;3.27;;
11837;SDS011;5978;51.020;6.764;2023-04-25T08:40:57;6.83;;;3.00;;
11837;SDS011;5978;51.020;6.764;2023-04-25T08:43:25;7.30;;;3.73;;
11837;SDS011;5978;51.020;6.764;2023-04-25T08:45:53;5.17;;;2.77;;
11837;SDS011;5978;51.020;6.764;2023-04-25T08:48:25;8.83;;;3.63;;
11837;SDS011;5978;51.020;6.764;2023-04-25T08:50:53;7.80;;;3.30;;
11837;SDS011;5978;51.020;6.764;2023-04-25T08:53:29;11.17;;;4.60;;
11837;SDS011;5978;51.020;6.764;2023-04-25T08:55:57;12.33;;;3.20;;
11837;SDS011;5978;51.020;6.764;2023-04-25T08:58:24;10.23;;;2.70;;
11837;SDS011;5978;51.020;6.764;2023-04-25T09:00:52;9.00;;;3.17;;
11837;SDS011;5978;51.020;6.764;2023-04-25T09:03:18;6.17;;;3.50;;
11837;SDS011;5978;51.020;6.764;2023-04-25T09:05:44;7.70;;;4.67;;
11837;SDS011;5978;51.020;6.764;2023-04-25T09:08:10;8.10;;;2.70;;
11837;SDS011;5978;51.020;6.764;2023-04-25T09:10:36;14.43;;;3.00;;
11837;SDS011;5978;51.020;6.764;2023-04-25T09:13:10;9.83;;;3.37;;
11837;SDS011;5978;51.020;6.764;2023-04-25T09:16:01;9.57;;;3.90;;
11837;SDS011;5978;51.020;6.764;2023-04-25T09:18:27;10.93;;;2.97;;
11837;SDS011;5978;51.020;6.764;2023-04-25T09:20:58;7.10;;;2.80;;
11837;SDS011;5978;51.020;6.764;2023-04-25T09:23:31;13.77;;;3.30;;
11837;SDS011;5978;51.020;6.764;2023-04-25T09:26:08;6.47;;;2.93;;
11837;SDS011;5978;51.020;6.764;2023-04-25T09:28:35;5.40;;;2.90;;
11837;SDS011;5978;51.020;6.764;2023-04-25T09:31:03;16.10;;;4.07;;
11837;SDS011;5978;51.020;6.764;2023-04-25T09:33:29;12.70;;;3.23;;
11837;SDS011;5978;51.020;6.764;2023-04-25T09:36:02;9.60;;;2.60;;
11837;SDS011;5978;51.020;6.764;2023-04-25T09:38:33;7.00;;;2.87;;
11837;SDS011;5978;51.020;6.764;2023-04-25T09:41:11;4.47;;;2.67;;
11837;SDS011;5978;51.020;6.764;2023-04-25T09:43:37;8.80;;;3.33;;
11837;SDS011;5978;51.020;6.764;2023-04-25T09:46:08;11.67;;;3.00;;
11837;SDS011;5978;51.020;6.764;2023-04-25T09:48:34;10.23;;;3.20;;
11837;SDS011;5978;51.020;6.764;2023-04-25T09:53:33;12.50;;;4.00;;
11837;SDS011;5978;51.020;6.764;2023-04-25T09:56:00;9.13;;;3.30;;
11837;SDS011;5978;51.020;6.764;2023-04-25T09:58:30;4.07;;;2.97;;
11837;SDS011;5978;51.020;6.764;2023-04-25T10:01:00;7.37;;;3.30;;
11837;SDS011;5978;51.020;6.764;2023-04-25T10:03:30;10.13;;;3.37;;
11837;SDS011;5978;51.020;6.764;2023-04-25T10:06:00;8.60;;;3.20;;
11837;SDS011;5978;51.020;6.764;2023-04-25T10:08:35;4.17;;;2.97;;
11837;SDS011;5978;51.020;6.764;2023-04-25T10:11:02;6.73;;;3.00;;
11837;SDS011;5978;51.020;6.764;2023-04-25T10:13:30;8.17;;;3.00;;
11837;SDS011;5978;51.020;6.764;2023-04-25T10:15:59;4.60;;;2.27;;
11837;SDS011;5978;51.020;6.764;2023-04-25T10:18:26;5.30;;;2.33;;
11837;SDS011;5978;51.020;6.764;2023-04-25T10:20:54;6.47;;;2.23;;
11837;SDS011;5978;51.020;6.764;2023-04-25T10:23:21;8.20;;;2.43;;
11837;SDS011;5978;51.020;6.764;2023-04-25T10:25:48;9.10;;;2.73;;
11837;SDS011;5978;51.020;6.764;2023-04-25T10:28:19;5.80;;;2.50;;
11837;SDS011;5978;51.020;6.764;2023-04-25T10:30:56;4.83;;;2.13;;
11837;SDS011;5978;51.020;6.764;2023-04-25T10:33:32;10.63;;;2.90;;
11837;SDS011;5978;51.020;6.764;2023-04-25T10:36:08;6.83;;;2.57;;
11837;SDS011;5978;51.020;6.764;2023-04-25T10:38:35;3.53;;;2.07;;
11837;SDS011;5978;51.020;6.764;2023-04-25T10:41:07;4.00;;;1.60;;
11837;SDS011;5978;51.020;6.764;2023-04-25T10:43:39;6.47;;;2.87;;
11837;SDS011;5978;51.020;6.764;2023-04-25T10:46:15;4.33;;;1.80;;
11837;SDS011;5978;51.020;6.764;2023-04-25T10:48:47;3.90;;;2.00;;
11837;SDS011;5978;51.020;6.764;2023-04-25T10:51:17;7.93;;;2.70;;
11837;SDS011;5978;51.020;6.764;2023-04-25T10:54:07;3.60;;;2.20;;
11837;SDS011;5978;51.020;6.764;2023-04-25T10:56:41;5.90;;;2.33;;
11837;SDS011;5978;51.020;6.764;2023-04-25T10:59:18;4.60;;;2.33;;
11837;SDS011;5978;51.020;6.764;2023-04-25T11:01:49;2.83;;;2.10;;
11837;SDS011;5978;51.020;6.764;2023-04-25T11:04:21;4.37;;;2.27;;
11837;SDS011;5978;51.020;6.764;2023-04-25T11:07:53;5.20;;;2.60;;
11837;SDS011;5978;51.020;6.764;2023-04-25T11:10:01;6.20;;;2.47;;
11837;SDS011;5978;51.020;6.764;2023-04-25T11:12:31;3.50;;;2.53;;
11837;SDS011;5978;51.020;6.764;2023-04-25T11:15:03;3.53;;;2.20;;
11837;SDS011;5978;51.020;6.764;2023-04-25T11:17:32;11.70;;;2.73;;
11837;SDS011;5978;51.020;6.764;2023-04-25T11:19:59;4.40;;;2.10;;
11837;SDS011;5978;51.020;6.764;2023-04-25T11:22:26;9.57;;;2.63;;
11837;SDS011;5978;51.020;6.764;2023-04-25T11:24:52;7.33;;;1.90;;
11837;SDS011;5978;51.020;6.764;2023-04-25T11:27:18;3.60;;;1.77;;
11837;SDS011;5978;51.020;6.764;2023-04-25T11:29:46;4.30;;;1.97;;
11837;SDS011;5978;51.020;6.764;2023-04-25T11:32:14;6.00;;;2.00;;
11837;SDS011;5978;51.020;6.764;2023-04-25T11:34:42;6.47;;;1.90;;
11837;SDS011;5978;51.020;6.764;2023-04-25T11:37:08;3.27;;;1.70;;
11837;SDS011;5978;51.020;6.764;2023-04-25T11:39:36;7.73;;;2.67;;
11837;SDS011;5978;51.020;6.764;2023-04-25T11:42:02;5.63;;;1.67;;
11837;SDS011;5978;51.020;6.764;2023-04-25T11:44:29;2.53;;;2.00;;
11837;SDS011;5978;51.020;6.764;2023-04-25T11:46:55;4.37;;;2.13;;
11837;SDS011;5978;51.020;6.764;2023-04-25T11:49:20;2.93;;;1.73;;
11837;SDS011;5978;51.020;6.764;2023-04-25T11:51:47;4.50;;;2.30;;
11837;SDS011;5978;51.020;6.764;2023-04-25T11:54:13;3.90;;;1.90;;
11837;SDS011;5978;51.020;6.764;2023-04-25T11:56:43;7.87;;;2.30;;
11837;SDS011;5978;51.020;6.764;2023-04-25T11:59:10;5.20;;;2.20;;
11837;SDS011;5978;51.020;6.764;2023-04-25T12:01:37;5.13;;;2.20;;
11837;SDS011;5978;51.020;6.764;2023-04-25T12:04:14;4.70;;;1.83;;
11837;SDS011;5978;51.020;6.764;2023-04-25T12:06:45;2.53;;;1.70;;
11837;SDS011;5978;51.020;6.764;2023-04-25T12:09:13;2.90;;;2.00;;
11837;SDS011;5978;51.020;6.764;2023-04-25T12:11:43;5.30;;;2.30;;
11837;SDS011;5978;51.020;6.764;2023-04-25T12:14:10;4.73;;;1.90;;
11837;SDS011;5978;51.020;6.764;2023-04-25T12:16:43;2.30;;;1.77;;
11837;SDS011;5978;51.020;6.764;2023-04-25T12:19:13;5.83;;;2.20;;
11837;SDS011;5978;51.020;6.764;2023-04-25T12:21:40;3.23;;;1.77;;
11837;SDS011;5978;51.020;6.764;2023-04-25T12:24:09;4.23;;;2.33;;
11837;SDS011;5978;51.020;6.764;2023-04-25T12:29:28;9.33;;;2.60;;
11837;SDS011;5978;51.020;6.764;2023-04-25T12:31:56;3.97;;;2.00;;
11837;SDS011;5978;51.020;6.764;2023-04-25T12:34:22;4.40;;;2.40;;
11837;SDS011;5978;51.020;6.764;2023-04-25T12:36:49;9.50;;;2.30;;
11837;SDS011;5978;51.020;6.764;2023-04-25T12:39:16;2.63;;;2.40;;
11837;SDS011;5978;51.020;6.764;2023-04-25T12:41:49;4.43;;;2.17;;
11837;SDS011;5978;51.020;6.764;2023-04-25T12:44:15;3.50;;;2.37;;
11837;SDS011;5978;51.020;6.764;2023-04-25T12:46:42;4.23;;;2.70;;
11837;SDS011;5978;51.020;6.764;2023-04-25T12:49:07;9.03;;;4.20;;
11837;SDS011;5978;51.020;6.764;2023-04-25T12:51:34;3.63;;;2.50;;
11837;SDS011;5978;51.020;6.764;2023-04-25T12:54:01;4.70;;;2.13;;
11837;SDS011;5978;51.020;6.764;2023-04-25T12:56:27;4.13;;;1.97;;
11837;SDS011;5978;51.020;6.764;2023-04-25T12:58:53;2.60;;;1.53;;
11837;SDS011;5978;51.020;6.764;2023-04-25T13:01:19;4.23;;;1.70;;
11837;SDS011;5978;51.020;6.764;2023-04-25T13:03:46;2.20;;;2.00;;
11837;SDS011;5978;51.020;6.764;2023-04-25T13:06:12;1.70;;;1.30;;
11837;SDS011;5978;51.020;6.764;2023-04-25T13:08:38;2.67;;;2.03;;
11837;SDS011;5978;51.020;6.764;2023-04-25T13:11:05;2.67;;;1.57;;
11837;SDS011;5978;51.020;6.764;2023-04-25T13:13:31;2.40;;;1.50;;
11837;SDS011;5978;51.020;6.764;2023-04-25T13:15:57;4.20;;;1.63;;
11837;SDS011;5978;51.020;6.764;2023-04-25T13:18:23;2.40;;;1.30;;
11837;SDS011;5978;51.020;6.764;2023-04-25T13:20:52;4.80;;;1.57;;
11837;SDS011;5978;51.020;6.764;2023-04-25T13:23:18;3.00;;;1.20;;
11837;SDS011;5978;51.020;6.764;2023-04-25T13:25:45;2.23;;;1.90;;
11837;SDS011;5978;51.020;6.764;2023-04-25T13:28:11;1.50;;;1.20;;
11837;SDS011;5978;51.020;6.764;2023-04-25T13:30:37;6.93;;;1.70;;
11837;SDS011;5978;51.020;6.764;2023-04-25T13:33:03;3.00;;;1.40;;
11837;SDS011;5978;51.020;6.764;2023-04-25T13:35:29;1.93;;;1.57;;
11837;SDS011;5978;51.020;6.764;2023-04-25T13:37:56;4.10;;;1.50;;
11837;SDS011;5978;51.020;6.764;2023-04-25T13:40:21;3.03;;;1.43;;
11837;SDS011;5978;51.020;6.764;2023-04-25T13:42:47;3.30;;;1.53;;
11837;SDS011;5978;51.020;6.764;2023-04-25T13:45:13;2.90;;;1.23;;
11837;SDS011;5978;51.020;6.764;2023-04-25T13:47:40;2.80;;;1.33;;
11837;SDS011;5978;51.020;6.764;2023-04-25T13:50:05;1.70;;;1.23;;
11837;SDS011;5978;51.020;6.764;2023-04-25T13:52:33;1.40;;;1.27;;
11837;SDS011;5978;51.020;6.764;2023-04-25T13:54:59;5.57;;;2.00;;
11837;SDS011;5978;51.020;6.764;2023-04-25T13:57:25;3.27;;;1.40;;
11837;SDS011;5978;51.020;6.764;2023-04-25T13:59:50;3.33;;;1.10;;
11837;SDS011;5978;51.020;6.764;2023-04-25T14:02:17;2.17;;;1.00;;
11837;SDS011;5978;51.020;6.764;2023-04-25T14:04:43;1.73;;;1.07;;
11837;SDS011;5978;51.020;6.764;2023-04-25T14:07:08;1.57;;;1.03;;
11837;SDS011;5978;51.020;6.764;2023-04-25T14:09:36;3.13;;;1.30;;
11837;SDS011;5978;51.020;6.764;2023-04-25T14:12:02;2.57;;;1.30;;
11837;SDS011;5978;51.020;6.764;2023-04-25T14:14:28;2.00;;;1.57;;
11837;SDS011;5978;51.020;6.764;2023-04-25T14:16:54;6.63;;;1.53;;
11837;SDS011;5978;51.020;6.764;2023-04-25T14:19:20;8.30;;;1.90;;
11837;SDS011;5978;51.020;6.764;2023-04-25T14:21:46;3.70;;;1.70;;
11837;SDS011;5978;51.020;6.764;2023-04-25T14:24:15;3.53;;;1.57;;
11837;SDS011;5978;51.020;6.764;2023-04-25T14:26:41;3.80;;;1.50;;
11837;SDS011;5978;51.020;6.764;2023-04-25T14:29:07;3.63;;;2.17;;
11837;SDS011;5978;51.020;6.764;2023-04-25T14:31:33;5.20;;;2.03;;
11837;SDS011;5978;51.020;6.764;2023-04-25T14:34:00;4.53;;;1.90;;
11837;SDS011;5978;51.020;6.764;2023-04-25T14:36:29;2.90;;;1.57;;
11837;SDS011;5978;51.020;6.764;2023-04-25T14:38:56;5.83;;;2.20;;
11837;SDS011;5978;51.020;6.764;2023-04-25T14:41:22;3.60;;;1.60;;
11837;SDS011;5978;51.020;6.764;2023-04-25T14:43:48;2.17;;;1.80;;
11837;SDS011;5978;51.020;6.764;2023-04-25T14:46:14;8.73;;;2.23;;
11837;SDS011;5978;51.020;6.764;2023-04-25T14:48:40;1.97;;;1.43;;
11837;SDS011;5978;51.020;6.764;2023-04-25T14:51:05;5.10;;;2.40;;
11837;SDS011;5978;51.020;6.764;2023-04-25T14:53:31;3.40;;;1.90;;
11837;SDS011;5978;51.020;6.764;2023-04-25T14:55:58;1.70;;;1.40;;
11837;SDS011;5978;51.020;6.764;2023-04-25T14:58:23;3.63;;;2.00;;